Vremea acum in Suceava - Romania

Vrei sa afli care e starea vremii acum in Suceava - Romania? Dorim sa iti furnizam starea vremii pentru Suceava - Romania. Starea vremii Suceava - Romania pentru astazi.

Vremea acum in Suceava

Temperatura: 21 °C

Se simte ca: 21 °C
Innorat: 0 %
Precipitatii: 0 %
Presiune atmosferica: 1012 hPa
Umiditate: 46%
Vizibilitate: 10 km
Vantul bate din NW cu 15.1 km/h

Evolutia vremii in Suceava pe ore

Ora: 12:00
Parțial noros
Temperatura: 20.5°C
Sansa de precipitatii: 0%
Ora Descriere Temp Se simte Precipitatii Umiditate Vant
00:00Parțial noros12.5°11.7°0%90%WNW 9.7 KM/H
01:00Parțial noros12.3°11.5°0%90%WNW 9.4 KM/H
02:00Parțial noros12°11.2°0%90%WNW 9 KM/H
03:00Parțial noros11.7°10.9°0%91%WNW 9 KM/H
04:00Parțial noros11.4°10.5°0%91%WNW 8.6 KM/H
05:00Parțial noros11.1°10.2°0%91%WNW 8.6 KM/H
06:00Parțial noros12.8°12.2°0%87%WNW 10.8 KM/H
07:00Parțial noros14.4°14.1°0%84%NW 13.3 KM/H
08:00Parțial noros16.1°16.1°0%80%NW 15.5 KM/H
09:00Parțial noros17.4°17.4°0%74%NNW 14.8 KM/H
10:00Parțial noros18.6°18.6°0%68%NNW 14.4 KM/H
11:00Parțial noros19.9°19.9°0%62%N 13.7 KM/H
12:00Parțial noros20.5°20.5°0%59%WSW 12.2 KM/H
13:00Parțial noros21.2°21.2°0%57%ESE 11.2 KM/H
14:00Parțial noros21.8°21.8°0%54%N 9.7 KM/H
15:00Parțial noros22°24.5°0%54%NNE 7.6 KM/H
16:00Parțial noros22.1°24.6°0%53%NNE 5 KM/H
17:00Parțial noros22.3°24.6°0%52%NE 2.9 KM/H
18:00Parțial noros21.6°21.6°0%58%E 2.5 KM/H
19:00Parțial noros21°21°0%64%SSE 2.2 KM/H
20:00Parțial noros20.3°20.3°0%70%SSW 1.8 KM/H
21:00Ploi pe porţiuni în apropiere19°19°20%75%SW 3.2 KM/H
22:00Parțial noros17.6°17.6°40%80%WSW 4.3 KM/H
23:00Ploi pe porţiuni în apropiere16.3°16.3°60%85%WNW 5.8 KM/H